Time;durP1;ratioP1;P1;durP2;ratioP2;P2;SDS_P1;SDS_P2;PMS_P1;PMS_P2;Temp;Humidity;BMP_temperature;BMP_pressure;BME280_temperature;BME280_humidity;BME280_pressure;Samples;Min_cycle;Max_cycle;Signal;HPM_P1;HPM_P2
2021/10/18 00:00:13;;;;;;;10.00;5.80;;;11.20;99.90;;;;;;4953979;28;20347;-81
2021/10/18 00:02:39;;;;;;;13.07;6.30;;;11.20;99.90;;;;;;4972033;28;20039;-81
2021/10/18 00:05:08;;;;;;;9.35;5.80;;;11.20;99.90;;;;;;4968506;28;20034;-81
2021/10/18 00:07:34;;;;;;;11.77;6.20;;;11.20;99.90;;;;;;4969195;28;20046;-81
2021/10/18 00:10:00;;;;;;;12.15;5.35;;;11.20;99.90;;;;;;4986951;28;20040;-82
2021/10/18 00:12:26;;;;;;;16.25;6.20;;;11.20;99.90;;;;;;4962733;28;20355;-82
2021/10/18 00:14:51;;;;;;;12.93;6.15;;;11.20;99.90;;;;;;4971473;28;20050;-82
2021/10/18 00:17:17;;;;;;;11.02;6.15;;;11.20;99.90;;;;;;4971399;28;20076;-82
2021/10/18 00:19:43;;;;;;;15.55;6.78;;;11.30;99.90;;;;;;4969080;28;20138;-81
2021/10/18 00:22:09;;;;;;;15.60;6.70;;;11.20;99.90;;;;;;4987517;28;20041;-82
2021/10/18 00:24:35;;;;;;;15.55;6.13;;;11.20;99.90;;;;;;4950003;28;20046;-82
2021/10/18 00:27:00;;;;;;;9.90;6.00;;;11.20;99.90;;;;;;4987274;28;20038;-81
2021/10/18 00:29:26;;;;;;;10.85;6.80;;;11.20;99.90;;;;;;4972184;28;20069;-81
2021/10/18 00:31:52;;;;;;;11.88;6.05;;;11.20;99.90;;;;;;4972914;28;20034;-80
2021/10/18 00:34:17;;;;;;;15.15;6.55;;;11.20;99.90;;;;;;4972176;28;20073;-80
2021/10/18 00:36:43;;;;;;;11.25;6.32;;;11.10;99.90;;;;;;4955510;28;20145;-81
2021/10/18 00:39:09;;;;;;;10.00;6.50;;;11.10;99.90;;;;;;5005599;28;20096;-80
2021/10/18 00:41:35;;;;;;;11.32;6.28;;;11.10;99.90;;;;;;5005546;28;20138;-81
2021/10/18 00:44:00;;;;;;;13.43;6.50;;;11.20;99.90;;;;;;5008386;28;20120;-81
2021/10/18 00:46:30;;;;;;;13.23;6.60;;;11.20;99.90;;;;;;4961588;28;20034;-81
2021/10/18 00:48:56;;;;;;;9.50;6.10;;;11.20;99.90;;;;;;4991831;28;20046;-80
2021/10/18 00:51:23;;;;;;;10.43;6.65;;;11.10;99.90;;;;;;4992571;28;20045;-80
2021/10/18 00:53:51;;;;;;;11.38;6.35;;;11.10;99.90;;;;;;4977428;28;20088;-80
2021/10/18 00:56:17;;;;;;;13.02;6.63;;;11.10;99.90;;;;;;5007825;28;20114;-81
2021/10/18 00:58:44;;;;;;;15.40;6.65;;;11.10;99.90;;;;;;4976633;28;20480;-81
2021/10/18 01:01:10;;;;;;;10.07;6.70;;;11.10;99.90;;;;;;5007837;28;20039;-81
2021/10/18 01:03:36;;;;;;;10.80;6.80;;;11.10;99.90;;;;;;5009296;28;20128;-80
2021/10/18 01:06:02;;;;;;;13.98;6.65;;;11.20;99.90;;;;;;5007854;28;20073;-81
2021/10/18 01:08:28;;;;;;;14.48;6.78;;;11.30;99.90;;;;;;5008947;28;20124;-80
2021/10/18 01:10:54;;;;;;;13.88;6.82;;;11.10;99.90;;;;;;5008408;28;20089;-80
2021/10/18 01:13:20;;;;;;;14.48;7.40;;;11.10;99.90;;;;;;4975095;28;20031;-80
2021/10/18 01:15:46;;;;;;;16.25;7.30;;;11.10;99.90;;;;;;4981882;28;20045;-81
2021/10/18 01:18:11;;;;;;;13.48;7.35;;;11.10;99.90;;;;;;5008572;28;20034;-81
2021/10/18 01:20:40;;;;;;;11.98;6.72;;;11.10;99.90;;;;;;4976082;28;20112;-81
2021/10/18 01:23:09;;;;;;;14.50;6.97;;;11.00;99.90;;;;;;5008265;28;20048;-81
2021/10/18 01:25:36;;;;;;;12.73;6.90;;;11.00;99.90;;;;;;4958333;28;20042;-80
2021/10/18 01:28:02;;;;;;;13.90;7.15;;;11.00;99.90;;;;;;4972329;28;20058;-81
2021/10/18 01:30:28;;;;;;;10.00;6.85;;;11.00;99.90;;;;;;4973300;28;20218;-81
2021/10/18 01:32:54;;;;;;;13.52;8.18;;;11.00;99.90;;;;;;4972212;28;20071;-80
2021/10/18 01:35:20;;;;;;;14.05;7.55;;;11.00;99.90;;;;;;4988057;28;20121;-81
2021/10/18 01:37:47;;;;;;;11.88;7.57;;;11.00;99.90;;;;;;4967977;28;20510;-80
2021/10/18 01:40:15;;;;;;;14.90;7.43;;;11.00;99.90;;;;;;4939867;28;20039;-80
2021/10/18 01:42:42;;;;;;;13.45;7.50;;;10.90;99.90;;;;;;4981926;28;20093;-80
2021/10/18 01:45:10;;;;;;;14.05;7.88;;;10.90;99.90;;;;;;4972838;28;20137;-81
2021/10/18 01:47:36;;;;;;;12.75;7.65;;;11.10;99.90;;;;;;4970382;28;20065;-81
2021/10/18 01:50:17;;;;;;;14.18;7.60;;;10.90;99.90;;;;;;4987111;28;20070;-81
2021/10/18 01:52:44;;;;;;;13.68;7.80;;;10.90;99.90;;;;;;4970883;28;20128;-80
2021/10/18 01:55:10;;;;;;;17.38;8.23;;;10.90;99.90;;;;;;4970924;28;20786;-81
2021/10/18 01:57:36;;;;;;;16.13;7.50;;;10.80;99.90;;;;;;4988069;28;20043;-80
2021/10/18 02:00:04;;;;;;;13.30;7.32;;;10.80;99.90;;;;;;4970626;28;20043;-80
2021/10/18 02:02:30;;;;;;;17.77;8.20;;;10.80;99.90;;;;;;4971594;28;20050;-81
2021/10/18 02:04:55;;;;;;;17.60;7.60;;;10.80;99.90;;;;;;4970617;28;20057;-80
2021/10/18 02:07:21;;;;;;;12.65;7.57;;;10.80;99.90;;;;;;4972495;28;20038;-79
2021/10/18 02:09:47;;;;;;;14.10;7.22;;;10.80;99.90;;;;;;4971173;28;20058;-80
2021/10/18 02:12:12;;;;;;;14.30;7.75;;;10.80;99.90;;;;;;4973173;28;20063;-79
2021/10/18 02:14:38;;;;;;;14.77;7.40;;;10.80;99.90;;;;;;4971581;28;20101;-79
2021/10/18 02:17:04;;;;;;;14.90;7.75;;;10.80;99.90;;;;;;4967539;28;20026;-79
2021/10/18 02:19:29;;;;;;;13.52;7.47;;;10.80;99.90;;;;;;4971216;28;20080;-80
2021/10/18 02:21:55;;;;;;;12.52;7.10;;;10.80;99.90;;;;;;4986953;28;20061;-79
2021/10/18 02:24:20;;;;;;;12.95;7.05;;;10.80;99.90;;;;;;4968971;28;20046;-79
2021/10/18 02:26:46;;;;;;;12.02;7.45;;;10.80;99.90;;;;;;4987117;28;20039;-79
2021/10/18 02:29:12;;;;;;;13.95;7.20;;;10.80;99.90;;;;;;4969862;28;20367;-79
2021/10/18 02:31:37;;;;;;;13.93;7.60;;;10.70;99.90;;;;;;4965838;28;20051;-79
2021/10/18 02:34:04;;;;;;;13.27;7.00;;;10.70;99.90;;;;;;4970192;28;20074;-79
2021/10/18 02:36:30;;;;;;;10.95;6.80;;;10.70;99.90;;;;;;4960577;28;20054;-80
2021/10/18 02:38:57;;;;;;;15.93;7.88;;;10.70;99.90;;;;;;4973655;28;20083;-79
2021/10/18 02:41:23;;;;;;;12.85;7.47;;;10.60;99.90;;;;;;4972598;28;20042;-80
2021/10/18 02:43:49;;;;;;;13.80;8.07;;;10.70;99.90;;;;;;4971453;28;20101;-78
2021/10/18 02:46:15;;;;;;;11.52;7.28;;;10.60;99.90;;;;;;4965886;28;20130;-80
2021/10/18 02:48:42;;;;;;;12.50;7.55;;;10.50;99.90;;;;;;4968825;28;20114;-79
2021/10/18 02:51:09;;;;;;;13.35;7.78;;;10.50;99.90;;;;;;4969875;28;20058;-79
2021/10/18 02:53:35;;;;;;;18.95;7.90;;;10.40;99.90;;;;;;4970651;28;20467;-80
2021/10/18 02:56:00;;;;;;;12.23;8.10;;;10.40;99.90;;;;;;4969974;28;20046;-79
2021/10/18 02:58:26;;;;;;;14.90;7.90;;;10.30;99.90;;;;;;4986249;28;20054;-80
2021/10/18 03:00:51;;;;;;;14.52;7.93;;;10.30;99.90;;;;;;4969545;28;20046;-79
2021/10/18 03:03:17;;;;;;;13.07;8.25;;;10.20;99.90;;;;;;4970312;28;20053;-79
2021/10/18 03:05:43;;;;;;;16.83;8.45;;;10.20;99.90;;;;;;4953440;28;20035;-79
2021/10/18 03:08:08;;;;;;;17.70;8.57;;;10.20;99.90;;;;;;4987052;28;20146;-79
2021/10/18 03:10:39;;;;;;;15.63;8.50;;;10.10;99.90;;;;;;4970306;28;20130;-79
2021/10/18 03:13:08;;;;;;;13.45;8.20;;;10.10;99.90;;;;;;4971079;28;20046;-79
2021/10/18 03:15:35;;;;;;;14.80;8.68;;;10.10;99.90;;;;;;4970661;28;20358;-80
2021/10/18 03:18:00;;;;;;;14.95;8.23;;;10.10;99.90;;;;;;4970218;28;20031;-79
2021/10/18 03:20:26;;;;;;;13.13;8.05;;;10.10;99.90;;;;;;4970625;28;20038;-79
2021/10/18 03:22:53;;;;;;;16.48;8.38;;;10.10;99.90;;;;;;4970658;28;20054;-79
2021/10/18 03:25:19;;;;;;;15.45;8.50;;;10.00;99.90;;;;;;4955190;28;20038;-79
2021/10/18 03:27:45;;;;;;;14.35;8.70;;;10.00;99.90;;;;;;4968716;28;20047;-79
2021/10/18 03:30:11;;;;;;;14.77;9.07;;;10.10;99.90;;;;;;4970385;28;20050;-79
2021/10/18 03:32:36;;;;;;;17.15;8.55;;;9.90;99.90;;;;;;4987044;28;20038;-79
2021/10/18 03:35:03;;;;;;;23.38;9.18;;;9.80;99.90;;;;;;4969392;28;20035;-80
2021/10/18 03:37:29;;;;;;;17.80;9.35;;;9.90;99.90;;;;;;4970860;28;20039;-80
2021/10/18 03:39:55;;;;;;;14.07;9.25;;;9.90;99.90;;;;;;4966610;28;20053;-80
2021/10/18 03:42:20;;;;;;;20.35;9.75;;;10.20;99.90;;;;;;4983627;28;20039;-80
2021/10/18 03:44:46;;;;;;;19.67;9.60;;;9.80;99.90;;;;;;4970052;28;20043;-80
2021/10/18 03:47:12;;;;;;;19.92;9.88;;;9.70;99.90;;;;;;4985826;28;20042;-80
2021/10/18 03:49:37;;;;;;;23.13;9.95;;;9.70;99.90;;;;;;4983604;28;20038;-80
2021/10/18 03:52:04;;;;;;;15.27;9.68;;;9.60;99.90;;;;;;4984373;28;20045;-80
2021/10/18 03:54:29;;;;;;;15.95;10.02;;;9.60;99.90;;;;;;4986697;28;20383;-80
2021/10/18 03:56:55;;;;;;;19.75;10.95;;;9.60;99.90;;;;;;4970345;28;20049;-80
2021/10/18 03:59:21;;;;;;;18.60;10.05;;;9.70;99.90;;;;;;4969866;28;20645;-80
2021/10/18 04:01:48;;;;;;;16.95;10.15;;;9.60;99.90;;;;;;4969280;28;20101;-80
2021/10/18 04:04:14;;;;;;;19.02;10.38;;;9.60;99.90;;;;;;4969748;28;20047;-80
2021/10/18 04:06:40;;;;;;;15.48;10.43;;;9.60;99.90;;;;;;4954296;28;20053;-80
2021/10/18 04:09:06;;;;;;;14.35;10.50;;;9.90;99.90;;;;;;4968876;28;20474;-80
2021/10/18 04:11:38;;;;;;;16.92;10.27;;;9.60;99.90;;;;;;4969588;28;20041;-80
2021/10/18 04:14:06;;;;;;;19.75;10.95;;;9.60;99.90;;;;;;4970463;28;20050;-80
2021/10/18 04:16:32;;;;;;;23.15;10.95;;;9.60;99.90;;;;;;4969571;28;20126;-80
2021/10/18 04:18:58;;;;;;;24.23;11.60;;;9.60;99.90;;;;;;4986098;28;20059;-80
2021/10/18 04:21:24;;;;;;;19.10;10.70;;;9.60;99.90;;;;;;4968749;28;20046;-80
2021/10/18 04:23:49;;;;;;;20.15;10.82;;;9.70;99.90;;;;;;4969515;28;20070;-79
2021/10/18 04:26:15;;;;;;;17.45;11.68;;;9.60;99.90;;;;;;4970615;28;20043;-80
2021/10/18 04:28:41;;;;;;;17.27;11.07;;;9.70;99.90;;;;;;4969331;28;20129;-80
2021/10/18 04:31:06;;;;;;;18.27;11.25;;;9.50;99.90;;;;;;4951174;28;20077;-80
2021/10/18 04:33:32;;;;;;;20.95;10.70;;;9.50;99.90;;;;;;4952568;28;20661;-80
2021/10/18 04:35:58;;;;;;;21.05;12.02;;;9.60;99.90;;;;;;4968453;28;20049;-80
2021/10/18 04:38:24;;;;;;;19.52;10.82;;;9.60;99.90;;;;;;4969528;28;20470;-80
2021/10/18 04:40:49;;;;;;;17.45;11.65;;;9.60;99.90;;;;;;4968893;28;20426;-80
2021/10/18 04:43:15;;;;;;;20.58;11.27;;;9.50;99.90;;;;;;4954103;28;20050;-80
2021/10/18 04:45:40;;;;;;;19.70;11.65;;;9.50;99.90;;;;;;4968800;28;20042;-80
2021/10/18 04:48:06;;;;;;;22.05;11.55;;;9.60;99.90;;;;;;4970539;28;20050;-80
2021/10/18 04:50:32;;;;;;;23.92;11.80;;;9.60;99.90;;;;;;4954074;28;20149;-80
2021/10/18 04:52:58;;;;;;;20.05;11.35;;;9.50;99.90;;;;;;4971423;28;20039;-80
2021/10/18 04:55:24;;;;;;;25.20;11.63;;;9.50;99.90;;;;;;4970246;28;20521;-80
2021/10/18 04:57:50;;;;;;;19.88;11.30;;;9.50;99.90;;;;;;4954184;28;20045;-80
2021/10/18 05:00:16;;;;;;;20.55;12.02;;;9.40;99.90;;;;;;4953186;28;20050;-79
2021/10/18 05:02:43;;;;;;;17.40;11.55;;;9.40;99.90;;;;;;4973909;28;20494;-82
2021/10/18 05:05:09;;;;;;;24.00;12.55;;;9.40;99.90;;;;;;4970196;28;20122;-80
2021/10/18 05:07:35;;;;;;;16.90;11.02;;;9.50;99.90;;;;;;4970678;28;20490;-79
2021/10/18 05:10:00;;;;;;;17.75;11.85;;;9.60;99.90;;;;;;4970995;28;20047;-79
2021/10/18 05:12:26;;;;;;;20.50;12.25;;;9.50;99.90;;;;;;4967878;28;20406;-79
2021/10/18 05:14:52;;;;;;;20.48;11.98;;;9.40;99.90;;;;;;4951237;28;20094;-80
2021/10/18 05:17:17;;;;;;;23.20;11.73;;;9.30;99.90;;;;;;4985209;28;20042;-79
2021/10/18 05:19:43;;;;;;;20.83;11.95;;;9.30;99.90;;;;;;4969566;28;20076;-79
2021/10/18 05:22:08;;;;;;;18.65;11.35;;;9.30;99.90;;;;;;4950078;28;20450;-80
2021/10/18 05:24:34;;;;;;;19.73;12.30;;;9.20;99.90;;;;;;4965607;28;20046;-79
2021/10/18 05:27:00;;;;;;;20.85;12.00;;;9.20;99.90;;;;;;4967548;28;20201;-80
2021/10/18 05:29:26;;;;;;;23.08;13.10;;;9.10;99.90;;;;;;4971241;28;20413;-79
2021/10/18 05:31:51;;;;;;;19.50;13.05;;;9.10;99.90;;;;;;4954347;28;20068;-79
2021/10/18 05:34:17;;;;;;;19.77;12.65;;;9.10;99.90;;;;;;4976482;28;20058;-79
2021/10/18 05:36:43;;;;;;;21.45;12.65;;;9.00;99.90;;;;;;4959616;28;20401;-79
2021/10/18 05:39:09;;;;;;;18.10;12.43;;;9.00;99.90;;;;;;4992474;28;20378;-78
2021/10/18 05:41:34;;;;;;;20.95;12.48;;;9.10;99.90;;;;;;4975238;28;20052;-76
2021/10/18 05:44:00;;;;;;;23.75;13.15;;;9.00;99.90;;;;;;4977853;28;20045;-75
2021/10/18 05:46:26;;;;;;;19.63;12.77;;;9.10;99.90;;;;;;4975388;28;20548;-76
2021/10/18 05:48:51;;;;;;;25.13;13.20;;;9.00;99.90;;;;;;4970975;28;20416;-79
2021/10/18 05:51:18;;;;;;;24.27;12.95;;;9.20;99.90;;;;;;4963802;28;20034;-79
2021/10/18 05:53:43;;;;;;;20.38;13.75;;;9.00;99.90;;;;;;4993111;28;20114;-79
2021/10/18 05:56:10;;;;;;;22.83;13.23;;;9.10;99.90;;;;;;4992462;28;20109;-79
2021/10/18 05:58:35;;;;;;;21.58;13.27;;;9.10;99.90;;;;;;4974841;28;20050;-78
2021/10/18 06:01:01;;;;;;;23.90;13.52;;;9.10;99.90;;;;;;4974983;28;20819;-76
2021/10/18 06:03:27;;;;;;;22.75;13.98;;;9.00;99.90;;;;;;4974877;28;20038;-76
2021/10/18 06:05:53;;;;;;;24.13;13.90;;;9.10;99.90;;;;;;4960170;28;20038;-79
2021/10/18 06:08:19;;;;;;;21.88;14.02;;;9.10;99.90;;;;;;4974088;28;20056;-80
2021/10/18 06:10:45;;;;;;;22.13;14.65;;;9.30;99.90;;;;;;4974053;28;20038;-80
2021/10/18 06:13:11;;;;;;;23.35;14.98;;;9.20;99.90;;;;;;4975198;28;20049;-78
2021/10/18 06:15:37;;;;;;;25.58;14.75;;;9.10;99.90;;;;;;4991245;28;20034;-79
2021/10/18 06:18:21;;;;;;;23.42;14.10;;;9.10;99.90;;;;;;5007043;28;20049;-80
2021/10/18 06:20:50;;;;;;;27.63;14.98;;;9.20;99.90;;;;;;4957385;28;20093;-80
2021/10/18 06:23:17;;;;;;;32.17;15.00;;;9.30;99.90;;;;;;4974464;28;20504;-80
2021/10/18 06:25:44;;;;;;;24.83;14.98;;;9.20;99.90;;;;;;4957443;28;20077;-80
2021/10/18 06:28:10;;;;;;;27.98;15.40;;;9.20;99.90;;;;;;4958867;28;20051;-80
2021/10/18 06:30:37;;;;;;;21.45;15.00;;;9.40;99.90;;;;;;5005587;28;20054;-80
2021/10/18 06:33:03;;;;;;;26.65;15.68;;;9.30;99.90;;;;;;4957467;28;20100;-79
2021/10/18 06:35:31;;;;;;;25.10;16.05;;;9.30;99.90;;;;;;4956690;28;20489;-79
2021/10/18 06:37:56;;;;;;;24.95;16.23;;;9.30;99.90;;;;;;4975170;28;20043;-79
2021/10/18 06:40:22;;;;;;;28.23;16.23;;;9.40;99.90;;;;;;4958232;28;20052;-80
2021/10/18 06:42:48;;;;;;;32.67;16.95;;;9.40;99.90;;;;;;4974232;28;20457;-79
2021/10/18 06:45:14;;;;;;;24.05;15.95;;;9.60;99.90;;;;;;4957571;28;20105;-77
2021/10/18 06:47:40;;;;;;;25.38;16.00;;;9.40;99.90;;;;;;4974056;28;20049;-79
2021/10/18 06:50:06;;;;;;;26.88;15.98;;;9.40;99.90;;;;;;4987911;28;20038;-79
2021/10/18 06:52:35;;;;;;;27.63;16.85;;;9.50;99.90;;;;;;4958044;28;20053;-78
2021/10/18 06:55:04;;;;;;;26.20;16.65;;;9.50;99.90;;;;;;4941211;28;20473;-79
2021/10/18 06:57:30;;;;;;;25.95;16.70;;;9.60;99.90;;;;;;4972734;28;20086;-79
2021/10/18 06:59:58;;;;;;;26.88;16.63;;;9.70;99.90;;;;;;4973418;28;20406;-80
2021/10/18 07:02:25;;;;;;;25.88;16.55;;;9.70;99.90;;;;;;4957665;28;20045;-79
2021/10/18 07:04:50;;;;;;;25.92;16.80;;;9.80;99.90;;;;;;4991381;28;20057;-79
2021/10/18 07:07:16;;;;;;;24.73;16.60;;;9.80;99.90;;;;;;4975217;28;20054;-79
2021/10/18 07:09:43;;;;;;;29.65;16.75;;;9.90;99.90;;;;;;4964290;28;20181;-79
2021/10/18 07:12:09;;;;;;;26.98;16.42;;;10.10;99.90;;;;;;4975120;28;20145;-79
2021/10/18 07:14:35;;;;;;;24.77;17.05;;;10.00;99.90;;;;;;4974783;28;20042;-79
2021/10/18 07:17:02;;;;;;;29.25;17.02;;;10.10;99.90;;;;;;4973601;28;20061;-79
2021/10/18 07:19:29;;;;;;;33.38;17.45;;;10.10;99.90;;;;;;4990191;28;20125;-80
2021/10/18 07:21:55;;;;;;;27.25;16.73;;;10.10;99.90;;;;;;4974011;28;20050;-79
2021/10/18 07:24:20;;;;;;;32.60;16.55;;;10.20;99.90;;;;;;4990249;28;20052;-79
2021/10/18 07:26:49;;;;;;;27.17;16.52;;;10.30;99.90;;;;;;4954418;28;20129;-79
2021/10/18 07:29:21;;;;;;;22.38;16.70;;;10.60;99.90;;;;;;4986078;28;20133;-80
2021/10/18 07:31:47;;;;;;;27.17;16.52;;;10.40;99.90;;;;;;4957590;28;20145;-80
2021/10/18 07:34:15;;;;;;;24.48;16.25;;;10.50;99.90;;;;;;4973806;28;20427;-80
2021/10/18 07:36:47;;;;;;;23.17;16.17;;;10.60;99.90;;;;;;4990583;28;20513;-79
2021/10/18 07:39:15;;;;;;;32.25;16.23;;;10.60;99.90;;;;;;4961630;28;20093;-80
2021/10/18 07:41:41;;;;;;;29.13;16.20;;;10.70;99.90;;;;;;4974223;28;20101;-81
2021/10/18 07:44:08;;;;;;;25.23;17.10;;;10.80;99.90;;;;;;4972903;28;20129;-80
2021/10/18 07:46:34;;;;;;;24.70;16.25;;;10.90;99.90;;;;;;4974378;28;20125;-79
2021/10/18 07:49:00;;;;;;;22.17;16.38;;;11.00;99.90;;;;;;4972531;28;20436;-79
2021/10/18 07:51:27;;;;;;;29.40;16.20;;;11.10;99.90;;;;;;4984693;28;20409;-79
2021/10/18 07:53:53;;;;;;;24.33;15.98;;;11.10;99.90;;;;;;4972941;28;20131;-79
2021/10/18 07:56:19;;;;;;;23.98;15.98;;;11.10;99.90;;;;;;4974902;28;20069;-79
2021/10/18 07:58:45;;;;;;;25.67;15.93;;;11.20;99.90;;;;;;4974281;28;20531;-78
2021/10/18 08:01:10;;;;;;;24.88;16.42;;;11.30;99.90;;;;;;5006245;28;20158;-78
2021/10/18 08:03:36;;;;;;;25.20;15.95;;;11.30;99.90;;;;;;4973288;28;20141;-79
2021/10/18 08:06:02;;;;;;;25.45;16.10;;;11.40;99.90;;;;;;4965138;28;20054;-81
2021/10/18 08:08:33;;;;;;;23.67;15.65;;;11.40;99.90;;;;;;4973903;28;20061;-80
2021/10/18 08:11:00;;;;;;;25.45;16.65;;;11.40;99.90;;;;;;4991001;28;20112;-78
2021/10/18 08:13:26;;;;;;;24.63;14.93;;;11.50;99.90;;;;;;4973917;28;20117;-78
2021/10/18 08:15:52;;;;;;;24.73;16.10;;;11.70;99.90;;;;;;4972498;28;20473;-80
2021/10/18 08:18:18;;;;;;;24.67;16.35;;;11.70;99.90;;;;;;5004458;28;20046;-79
2021/10/18 08:20:44;;;;;;;26.80;16.05;;;11.70;99.90;;;;;;4973149;28;20057;-79
2021/10/18 08:23:10;;;;;;;24.35;16.02;;;11.70;99.90;;;;;;4972816;28;20051;-79
2021/10/18 08:25:36;;;;;;;22.45;16.77;;;11.70;99.90;;;;;;4961170;28;20043;-78
2021/10/18 08:28:02;;;;;;;24.13;16.92;;;11.80;99.90;;;;;;4990089;28;20129;-82
2021/10/18 08:30:28;;;;;;;27.65;17.10;;;11.90;99.90;;;;;;4981527;28;20438;-79
2021/10/18 08:32:53;;;;;;;22.65;15.85;;;11.90;99.90;;;;;;5003708;28;20050;-77
2021/10/18 08:35:20;;;;;;;21.42;16.52;;;12.00;99.90;;;;;;4968637;28;20030;-75
2021/10/18 08:40:36;;;;;;;23.90;17.42;;;12.00;99.90;;;;;;4988283;28;20374;-76
2021/10/18 08:43:26;;;;;;;24.05;17.05;;;12.10;99.90;;;;;;4972806;28;20141;-79
2021/10/18 08:45:51;;;;;;;22.27;17.05;;;12.10;99.90;;;;;;4988883;28;20077;-76
2021/10/18 08:48:17;;;;;;;25.70;17.25;;;12.30;99.90;;;;;;4956328;28;20509;-77
2021/10/18 08:50:44;;;;;;;23.08;17.10;;;12.30;99.90;;;;;;4971450;28;20051;-76
2021/10/18 08:53:10;;;;;;;22.88;16.40;;;12.30;99.90;;;;;;4973100;28;20046;-76
2021/10/18 08:55:37;;;;;;;23.75;16.90;;;12.30;99.90;;;;;;4989788;28;20489;-77
2021/10/18 08:58:08;;;;;;;22.02;16.95;;;12.50;99.90;;;;;;4971700;28;20094;-77
2021/10/18 09:00:47;;;;;;;22.83;16.85;;;12.50;99.90;;;;;;4973687;28;20042;-77
2021/10/18 09:03:26;;;;;;;24.38;17.42;;;12.60;99.90;;;;;;4968796;28;20058;-76
2021/10/18 09:06:10;;;;;;;24.33;16.90;;;12.60;99.90;;;;;;4973103;28;20054;-76
2021/10/18 09:08:41;;;;;;;23.27;16.30;;;12.70;99.90;;;;;;4976831;28;20066;-76
2021/10/18 09:11:30;;;;;;;21.20;16.00;;;12.80;99.90;;;;;;4959364;28;20054;-76
2021/10/18 09:13:59;;;;;;;23.75;16.58;;;12.90;99.90;;;;;;4962002;28;20062;-76
2021/10/18 09:16:26;;;;;;;23.40;16.48;;;13.00;99.90;;;;;;4977827;28;20084;-79
2021/10/18 09:19:01;;;;;;;25.52;17.30;;;13.00;99.90;;;;;;4959083;28;20050;-75
2021/10/18 09:21:31;;;;;;;;;;;13.10;99.90;;;;;;4974302;28;20046;-75
2021/10/18 09:23:57;;;;;;;22.92;16.85;;;13.10;99.90;;;;;;4992359;28;19917;-76
2021/10/18 09:26:24;;;;;;;23.80;17.17;;;13.20;99.90;;;;;;4981558;28;20389;-77
2021/10/18 09:28:54;;;;;;;23.15;16.83;;;13.30;99.90;;;;;;4991591;28;20042;-77
2021/10/18 09:31:20;;;;;;;25.48;17.33;;;13.30;99.90;;;;;;4974676;28;20043;-76
2021/10/18 09:33:57;;;;;;;24.17;16.95;;;13.40;99.90;;;;;;4975488;28;20066;-78
2021/10/18 09:36:31;;;;;;;25.23;16.58;;;13.40;99.90;;;;;;4974413;28;20046;-78
2021/10/18 09:39:13;;;;;;;26.40;16.67;;;13.40;99.90;;;;;;4974520;28;20141;-78
2021/10/18 09:41:59;;;;;;;23.77;17.58;;;13.40;99.90;;;;;;4990990;28;20038;-74
2021/10/18 09:44:59;;;;;;;25.52;17.15;;;13.50;99.90;;;;;;4989639;28;20054;-76
2021/10/18 10:52:40;;;;;;;25.15;17.55;;;14.90;99.90;;;;;;4974747;28;20047;-78
2021/10/18 10:55:27;;;;;;;24.30;17.30;;;14.90;99.90;;;;;;4960226;28;20411;-79
2021/10/18 10:57:56;;;;;;;20.23;16.45;;;14.90;99.90;;;;;;4958832;28;20075;-79
2021/10/18 11:00:42;;;;;;;21.00;15.85;;;14.90;99.90;;;;;;4992923;28;20053;-79
2021/10/18 11:03:56;;;;;;;24.17;17.10;;;14.90;99.90;;;;;;4974112;28;20062;-79
2021/10/18 11:06:15;;;;;;;21.50;17.08;;;15.00;99.90;;;;;;4988873;28;20130;-79
2021/10/18 11:08:46;;;;;;;21.98;16.10;;;15.10;99.90;;;;;;4974605;28;20038;-79
2021/10/18 11:11:22;;;;;;;21.27;16.40;;;15.10;99.90;;;;;;4992429;28;20382;-79
2021/10/18 11:13:57;;;;;;;22.42;15.45;;;15.20;99.90;;;;;;4974738;28;20545;-80
2021/10/18 11:16:31;;;;;;;23.05;16.00;;;15.20;99.90;;;;;;4974276;28;20046;-79
2021/10/18 11:18:59;;;;;;;20.73;15.90;;;15.30;99.90;;;;;;4957114;28;20080;-79
2021/10/18 11:21:36;;;;;;;23.35;16.08;;;15.30;99.90;;;;;;4972527;28;20100;-79
2021/10/18 11:24:10;;;;;;;19.77;15.25;;;15.30;99.90;;;;;;4972397;28;20172;-78
2021/10/18 11:26:41;;;;;;;18.65;15.32;;;15.30;99.90;;;;;;4971653;28;20449;-79
2021/10/18 11:29:09;;;;;;;19.40;15.10;;;15.30;99.90;;;;;;4973903;28;20046;-79
2021/10/18 11:31:43;;;;;;;19.83;15.30;;;15.40;99.90;;;;;;4975231;28;20046;-79
2021/10/18 11:34:12;;;;;;;19.87;15.13;;;15.60;99.90;;;;;;4973553;28;20501;-79
2021/10/18 11:36:41;;;;;;;20.23;14.57;;;15.80;99.90;;;;;;4958074;28;20053;-79
2021/10/18 11:39:21;;;;;;;21.05;15.27;;;15.80;99.90;;;;;;4951274;28;20051;-80
2021/10/18 11:42:04;;;;;;;18.30;14.30;;;16.00;99.90;;;;;;5003849;28;20038;-79
2021/10/18 11:44:57;;;;;;;17.60;13.80;;;15.90;99.90;;;;;;4971263;28;20062;-79
2021/10/18 11:47:37;;;;;;;18.85;13.80;;;15.80;99.90;;;;;;4984263;28;20069;-79
2021/10/18 11:50:36;;;;;;;20.65;14.55;;;15.60;99.90;;;;;;4972668;28;20165;-79
2021/10/18 11:53:18;;;;;;;19.40;14.55;;;15.50;99.90;;;;;;4901040;29;20063;-79
2021/10/18 11:55:55;;;;;;;18.95;13.98;;;15.40;99.90;;;;;;4922160;29;20062;-79
2021/10/18 11:58:30;;;;;;;18.83;13.32;;;15.40;99.90;;;;;;4915483;29;20052;-79
2021/10/18 12:00:59;;;;;;;17.27;13.70;;;15.30;99.90;;;;;;4928831;29;20043;-79
2021/10/18 12:03:27;;;;;;;20.63;14.90;;;15.30;99.90;;;;;;4918115;29;20059;-79
2021/10/18 12:05:55;;;;;;;19.60;14.65;;;15.30;99.90;;;;;;4912242;29;20475;-78
2021/10/18 12:08:32;;;;;;;19.98;13.75;;;15.30;99.90;;;;;;4911674;29;20055;-77
2021/10/18 12:10:59;;;;;;;22.17;14.57;;;15.40;99.90;;;;;;4917395;29;20050;-78
2021/10/18 12:13:29;;;;;;;20.15;14.10;;;15.40;99.90;;;;;;4932562;29;20139;-78
2021/10/18 12:16:03;;;;;;;19.02;14.43;;;15.40;99.90;;;;;;4909204;29;20091;-78
2021/10/18 12:18:38;;;;;;;19.38;15.10;;;15.50;99.90;;;;;;4928636;29;20605;-78
2021/10/18 12:21:13;;;;;;;19.58;14.35;;;15.50;99.90;;;;;;4912092;29;20079;-80
2021/10/18 12:23:45;;;;;;;;;;;15.50;99.90;;;;;;4915569;29;20420;-81
2021/10/18 12:26:17;;;;;;;21.35;15.50;;;15.60;99.90;;;;;;4945904;29;20319;-77
2021/10/18 12:28:49;;;;;;;21.77;15.10;;;15.80;99.90;;;;;;4909136;28;20047;-79
2021/10/18 12:31:39;;;;;;;22.23;14.30;;;16.00;99.90;;;;;;4960653;28;20074;-78
2021/10/18 12:34:08;;;;;;;21.58;15.00;;;16.00;99.90;;;;;;4996721;28;20512;-78
2021/10/18 12:37:00;;;;;;;18.48;14.48;;;15.90;99.90;;;;;;4957003;28;20042;-78
2021/10/18 12:39:40;;;;;;;23.63;14.25;;;15.90;99.90;;;;;;5006576;28;20465;-78
2021/10/18 12:42:14;;;;;;;19.40;14.32;;;15.90;99.90;;;;;;4976728;28;20046;-78
2021/10/18 12:44:45;;;;;;;17.08;13.77;;;15.90;99.90;;;;;;4988728;28;20088;-77
2021/10/18 12:47:20;;;;;;;17.92;13.52;;;15.80;99.90;;;;;;4993749;28;20050;-77
2021/10/18 12:49:52;;;;;;;16.67;13.57;;;15.90;99.90;;;;;;4976053;28;20045;-76
2021/10/18 12:52:38;;;;;;;19.83;13.07;;;16.00;99.90;;;;;;4976012;28;20038;-76
2021/10/18 12:55:24;;;;;;;19.10;13.32;;;16.00;99.90;;;;;;4991205;28;20054;-77
2021/10/18 12:57:52;;;;;;;17.52;13.00;;;15.90;99.90;;;;;;4988675;28;20077;-78
2021/10/18 13:00:27;;;;;;;19.00;12.80;;;15.90;99.90;;;;;;4977549;28;20100;-82
2021/10/18 13:02:53;;;;;;;;;;;15.90;99.90;;;;;;4978383;28;20067;-80
2021/10/18 13:05:21;;;;;;;19.70;12.73;;;15.90;99.90;;;;;;4973531;28;19921;-80
2021/10/18 13:08:02;;;;;;;17.35;12.27;;;15.90;99.90;;;;;;4976387;28;20137;-79
2021/10/18 13:10:34;;;;;;;18.88;11.98;;;16.00;99.90;;;;;;4975261;28;20057;-79
2021/10/18 13:13:02;;;;;;;18.15;13.20;;;16.00;99.90;;;;;;4976236;28;20054;-79
2021/10/18 13:15:28;;;;;;;15.45;12.13;;;16.10;99.90;;;;;;4990506;28;20112;-77
2021/10/18 13:17:54;;;;;;;19.08;12.70;;;16.00;99.90;;;;;;4972010;28;20050;-79
2021/10/18 13:20:23;;;;;;;17.83;12.40;;;16.00;99.90;;;;;;4974955;28;20054;-78
2021/10/18 13:22:49;;;;;;;16.50;12.25;;;16.00;99.90;;;;;;4975299;28;20478;-79
2021/10/18 13:25:15;;;;;;;21.40;12.93;;;16.00;99.90;;;;;;4959623;28;20190;-78
2021/10/18 13:27:41;;;;;;;18.42;12.45;;;16.00;99.90;;;;;;4993288;28;20411;-78
2021/10/18 13:30:09;;;;;;;21.35;13.38;;;16.00;99.90;;;;;;4979479;28;20490;-80
2021/10/18 13:32:35;;;;;;;18.15;13.40;;;16.00;99.90;;;;;;4975666;28;20050;-77
2021/10/18 13:35:05;;;;;;;17.00;13.25;;;16.10;99.90;;;;;;4972003;28;20060;-76
2021/10/18 13:37:31;;;;;;;20.23;13.98;;;16.10;99.90;;;;;;4975495;28;20049;-76
2021/10/18 13:39:57;;;;;;;20.25;13.90;;;16.20;99.90;;;;;;4976132;28;20061;-80
2021/10/18 13:42:24;;;;;;;17.05;12.98;;;16.20;99.90;;;;;;5007669;28;20046;-77
2021/10/18 13:44:50;;;;;;;16.55;13.10;;;16.40;99.90;;;;;;4973644;28;20069;-77
2021/10/18 13:47:17;;;;;;;15.32;12.77;;;16.40;99.90;;;;;;4975359;28;20050;-80